DLH989 EDDF-EDDM
Flight info
| Callsign | DLH989 |
|---|---|
| Flight time | N/A |
| Altitude | 23000 |
| Route | CINDY8S/18 CINDY Z74 HAREM T104 ROKIL ROKIL1A |
| Aircraft | B739/M-SDE2E3FGHIRWXY/LB1 |
Departure
| Time | 2026-04-15 16:53 |
|---|---|
| Airport | Frankfurt Main Airport (EDDF) |
Arrival
| Time | N/A |
|---|---|
| Airport | Munich Airport (EDDM) |
| Time | Latitude | Longitude | Altitude | Speed | Heading |
|---|---|---|---|---|---|
| 2026-04-15 16:33 | 50.04998 | 8.57419 | 358 ft | 0 kts | 122° |
| 2026-04-15 16:38 | 50.04993 | 8.57430 | 358 ft | 0 kts | 122° |
| 2026-04-15 16:39 | 50.04993 | 8.57431 | 358 ft | 0 kts | 122° |
| 2026-04-15 16:42 | 50.04976 | 8.57476 | 362 ft | 11 kts | 120° |
| 2026-04-15 16:42 | 50.04918 | 8.57596 | 365 ft | 18 kts | 122° |
| 2026-04-15 16:42 | 50.04857 | 8.57807 | 358 ft | 6 kts | 113° |
| 2026-04-15 16:42 | 50.04824 | 8.57885 | 362 ft | 12 kts | 139° |
| 2026-04-15 16:43 | 50.04735 | 8.57921 | 348 ft | 15 kts | 202° |
| 2026-04-15 16:43 | 50.04681 | 8.57787 | 356 ft | 16 kts | 251° |
| 2026-04-15 16:43 | 50.04639 | 8.57608 | 348 ft | 19 kts | 247° |
| 2026-04-15 16:43 | 50.04592 | 8.57413 | 351 ft | 20 kts | 250° |
| 2026-04-15 16:44 | 50.04540 | 8.57193 | 354 ft | 22 kts | 250° |
| 2026-04-15 16:44 | 50.04522 | 8.57117 | 350 ft | 7 kts | 250° |
| 2026-04-15 16:44 | 50.04512 | 8.57076 | 354 ft | 0 kts | 249° |
| 2026-04-15 16:45 | 50.04508 | 8.57063 | 354 ft | 3 kts | 249° |
| 2026-04-15 16:45 | 50.04491 | 8.56992 | 350 ft | 14 kts | 249° |
| 2026-04-15 16:45 | 50.04449 | 8.56818 | 352 ft | 17 kts | 250° |
| 2026-04-15 16:45 | 50.04408 | 8.56646 | 355 ft | 17 kts | 249° |
| 2026-04-15 16:46 | 50.04368 | 8.56477 | 355 ft | 16 kts | 250° |
| 2026-04-15 16:46 | 50.04329 | 8.56317 | 349 ft | 15 kts | 250° |
| 2026-04-15 16:46 | 50.04291 | 8.56156 | 350 ft | 16 kts | 249° |
| 2026-04-15 16:46 | 50.04252 | 8.55994 | 357 ft | 16 kts | 250° |
| 2026-04-15 16:47 | 50.04211 | 8.55820 | 355 ft | 19 kts | 250° |
| 2026-04-15 16:47 | 50.04166 | 8.55627 | 359 ft | 20 kts | 250° |
| 2026-04-15 16:47 | 50.04114 | 8.55416 | 357 ft | 22 kts | 250° |
| 2026-04-15 16:47 | 50.04061 | 8.55194 | 359 ft | 22 kts | 250° |
| 2026-04-15 16:48 | 50.04003 | 8.54953 | 362 ft | 25 kts | 250° |
| 2026-04-15 16:48 | 50.03938 | 8.54679 | 358 ft | 29 kts | 249° |
| 2026-04-15 16:48 | 50.03882 | 8.54445 | 359 ft | 23 kts | 250° |
| 2026-04-15 16:48 | 50.03801 | 8.54224 | 366 ft | 23 kts | 247° |
| 2026-04-15 16:49 | 50.03744 | 8.53988 | 366 ft | 25 kts | 250° |
| 2026-04-15 16:49 | 50.03679 | 8.53717 | 359 ft | 29 kts | 249° |
| 2026-04-15 16:49 | 50.03620 | 8.53479 | 365 ft | 24 kts | 249° |
| 2026-04-15 16:49 | 50.03600 | 8.53397 | 365 ft | 8 kts | 249° |
| 2026-04-15 16:50 | 50.03575 | 8.53293 | 365 ft | 12 kts | 249° |
| 2026-04-15 16:50 | 50.03542 | 8.53159 | 367 ft | 14 kts | 248° |
| 2026-04-15 16:50 | 50.03504 | 8.53001 | 368 ft | 16 kts | 250° |
| 2026-04-15 16:50 | 50.03465 | 8.52841 | 374 ft | 16 kts | 246° |
| 2026-04-15 16:51 | 50.03422 | 8.52688 | 378 ft | 16 kts | 246° |
| 2026-04-15 16:51 | 50.03342 | 8.52594 | 375 ft | 13 kts | 182° |
| 2026-04-15 16:51 | 50.03329 | 8.52594 | 375 ft | 0 kts | 178° |
| 2026-04-15 16:52 | 50.03325 | 8.52594 | 375 ft | 4 kts | 178° |
| 2026-04-15 16:52 | 50.02955 | 8.52601 | 366 ft | 107 kts | 179° |
| 2026-04-15 16:53 | 50.01912 | 8.52601 | 367 ft | 191 kts | 181° |
| 2026-04-15 16:53 | 50.00448 | 8.52594 | 1019 ft | 226 kts | 180° |
| 2026-04-15 16:53 | 49.98813 | 8.52634 | 2185 ft | 243 kts | 180° |